createdAt,value
2023-08-08T00:01:12.752Z,24.07
2023-08-08T00:03:40.663Z,24.05
2023-08-08T00:06:08.459Z,24.03
2023-08-08T00:08:36.150Z,23.97
2023-08-08T00:11:03.816Z,23.97
2023-08-08T00:13:31.476Z,23.95
2023-08-08T00:15:59.266Z,23.93
2023-08-08T00:18:26.989Z,23.90
2023-08-08T00:20:54.770Z,23.89
2023-08-08T00:23:22.413Z,23.89
2023-08-08T00:25:52.307Z,23.85
2023-08-08T00:28:20.130Z,23.78
2023-08-08T00:30:48.005Z,23.75
2023-08-08T00:33:15.761Z,23.72
2023-08-08T00:35:43.897Z,23.70
2023-08-08T00:38:11.653Z,23.69
2023-08-08T00:40:39.408Z,23.66
2023-08-08T00:43:07.077Z,23.66
2023-08-08T00:45:35.779Z,23.63
2023-08-08T00:48:04.002Z,23.61
2023-08-08T00:50:32.029Z,23.58
2023-08-08T00:52:59.988Z,23.55
2023-08-08T00:55:28.158Z,23.52
2023-08-08T00:57:57.562Z,23.48
2023-08-08T01:00:25.408Z,23.45
2023-08-08T01:02:53.300Z,23.44
2023-08-08T01:05:21.340Z,23.40
2023-08-08T01:08:08.838Z,23.35
2023-08-08T01:10:40.678Z,23.34
2023-08-08T01:13:19.522Z,23.35
2023-08-08T01:15:49.843Z,23.32
2023-08-08T01:18:18.622Z,23.31
2023-08-08T01:20:47.723Z,23.28
2023-08-08T01:23:40.531Z,23.32
2023-08-08T01:26:08.499Z,23.27
2023-08-08T01:28:37.946Z,23.27
2023-08-08T01:31:05.769Z,23.27
2023-08-08T01:33:33.385Z,23.24
2023-08-08T01:36:07.365Z,23.23
2023-08-08T01:38:42.267Z,23.24
2023-08-08T01:41:10.440Z,23.23
2023-08-08T01:43:42.479Z,23.18
2023-08-08T01:46:11.019Z,23.17
2023-08-08T01:48:38.913Z,23.15
2023-08-08T01:51:07.168Z,23.11
2023-08-08T01:53:34.897Z,23.07
2023-08-08T01:56:04.368Z,23.04
2023-08-08T01:58:32.035Z,23.04
2023-08-08T02:00:59.649Z,23.08
2023-08-08T02:03:27.501Z,23.10
2023-08-08T02:05:55.171Z,23.13
2023-08-08T02:08:22.886Z,23.13
2023-08-08T02:10:50.632Z,23.11
2023-08-08T02:13:18.431Z,23.11
2023-08-08T02:15:46.457Z,23.07
2023-08-08T02:18:14.339Z,23.07
2023-08-08T02:20:41.960Z,23.07
2023-08-08T02:23:09.657Z,23.06
2023-08-08T02:25:37.304Z,23.08
2023-08-08T02:28:05.392Z,23.10
2023-08-08T02:30:32.993Z,23.10
2023-08-08T02:33:00.765Z,23.13
2023-08-08T02:35:28.534Z,23.15
2023-08-08T02:37:56.887Z,23.15
2023-08-08T02:40:25.756Z,23.17
2023-08-08T02:42:53.389Z,23.20
2023-08-08T02:45:21.049Z,23.25
2023-08-08T02:47:48.838Z,23.27
2023-08-08T02:50:16.762Z,23.30
2023-08-08T02:52:44.626Z,23.30
2023-08-08T02:55:13.727Z,23.31
2023-08-08T02:57:41.594Z,23.30
2023-08-08T03:00:09.805Z,23.34
2023-08-08T03:02:37.579Z,23.34
2023-08-08T03:05:05.795Z,23.35
2023-08-08T03:07:33.408Z,23.41
2023-08-08T03:10:01.094Z,23.44
2023-08-08T03:12:28.814Z,23.47
2023-08-08T03:14:56.485Z,23.51
2023-08-08T03:17:24.207Z,23.57
2023-08-08T03:19:51.963Z,23.61
2023-08-08T03:22:19.949Z,23.65
2023-08-08T03:24:47.720Z,23.69
2023-08-08T03:27:15.350Z,23.70
2023-08-08T03:29:43.053Z,23.73
2023-08-08T03:32:10.770Z,23.78
2023-08-08T03:34:38.501Z,23.78
2023-08-08T03:37:06.784Z,23.83
2023-08-08T03:39:34.511Z,23.89
2023-08-08T03:42:02.344Z,23.93
2023-08-08T03:44:30.213Z,23.99
2023-08-08T03:47:05.967Z,24.03
2023-08-08T03:49:41.884Z,24.05
2023-08-08T03:52:09.723Z,24.12
2023-08-08T03:54:37.483Z,24.16
2023-08-08T03:57:05.342Z,24.18
2023-08-08T03:59:33.598Z,24.24
2023-08-08T04:02:02.302Z,24.27
2023-08-08T04:04:31.460Z,24.28
2023-08-08T04:06:59.285Z,24.33
2023-08-08T04:09:26.973Z,24.37
2023-08-08T04:11:54.692Z,24.45
2023-08-08T04:14:22.382Z,24.51
2023-08-08T04:16:50.088Z,24.54
2023-08-08T04:19:17.780Z,24.57
2023-08-08T04:21:45.567Z,24.64
2023-08-08T04:24:13.767Z,24.68
2023-08-08T04:26:41.480Z,24.72
2023-08-08T04:29:09.192Z,24.79
2023-08-08T04:31:36.823Z,24.82
2023-08-08T04:34:04.489Z,24.89
2023-08-08T04:36:32.267Z,24.96
2023-08-08T04:39:00.106Z,25.05
2023-08-08T04:41:27.857Z,25.10
2023-08-08T04:43:55.531Z,25.13
2023-08-08T04:46:23.294Z,25.20
2023-08-08T04:48:51.135Z,25.27
2023-08-08T04:51:19.091Z,25.35
2023-08-08T04:53:46.781Z,25.41
2023-08-08T04:56:14.689Z,25.40
2023-08-08T04:58:42.575Z,25.41
2023-08-08T05:01:13.182Z,25.47
2023-08-08T05:03:41.027Z,25.54
2023-08-08T05:06:08.807Z,25.58
2023-08-08T05:08:36.598Z,25.64
2023-08-08T05:11:04.282Z,25.67
2023-08-08T05:13:32.057Z,25.77
2023-08-08T05:15:59.722Z,25.86
2023-08-08T05:18:27.366Z,25.95
2023-08-08T05:20:55.072Z,26.00
2023-08-08T05:23:22.806Z,26.10
2023-08-08T05:25:50.519Z,26.17
2023-08-08T05:28:18.310Z,26.22
2023-08-08T05:30:46.162Z,26.29
2023-08-08T05:33:13.896Z,26.36
2023-08-08T05:35:41.658Z,26.47
2023-08-08T05:38:09.553Z,26.53
2023-08-08T05:40:37.642Z,26.62
2023-08-08T05:43:05.618Z,26.71
2023-08-08T05:45:33.510Z,26.77
2023-08-08T05:48:01.763Z,26.85
2023-08-08T05:50:29.940Z,26.95
2023-08-08T05:52:57.633Z,27.06
2023-08-08T05:55:25.407Z,27.10
2023-08-08T05:57:53.256Z,27.16
2023-08-08T06:00:21.206Z,27.19
2023-08-08T06:02:48.801Z,27.22
2023-08-08T06:05:18.813Z,27.26
2023-08-08T06:07:46.518Z,27.34
2023-08-08T06:10:14.171Z,27.39
2023-08-08T06:12:41.886Z,27.46
2023-08-08T06:15:09.958Z,27.51
2023-08-08T06:17:37.675Z,27.61
2023-08-08T06:20:08.321Z,27.70
2023-08-08T06:22:36.227Z,27.78
2023-08-08T06:25:04.729Z,27.87
2023-08-08T06:27:32.458Z,27.99
2023-08-08T06:30:00.355Z,28.04
2023-08-08T06:32:28.582Z,28.08
2023-08-08T06:34:56.521Z,28.12
2023-08-08T06:37:24.184Z,28.12
2023-08-08T06:39:52.153Z,28.17
2023-08-08T06:42:19.808Z,28.23
2023-08-08T06:44:47.498Z,28.27
2023-08-08T06:47:15.313Z,28.35
2023-08-08T06:49:43.234Z,28.42
2023-08-08T06:52:10.960Z,28.50
2023-08-08T06:54:38.705Z,28.60
2023-08-08T06:57:06.591Z,28.71
2023-08-08T06:59:35.831Z,28.78
2023-08-08T07:02:03.619Z,28.81
2023-08-08T07:04:31.635Z,28.77
2023-08-08T07:06:59.404Z,28.77
2023-08-08T07:09:27.287Z,28.80
2023-08-08T07:11:55.366Z,28.88
2023-08-08T07:14:23.278Z,28.95
2023-08-08T07:16:51.163Z,28.95
2023-08-08T07:19:21.508Z,29.02
2023-08-08T07:21:49.355Z,29.12
2023-08-08T07:24:17.884Z,29.20
2023-08-08T07:26:45.685Z,29.23
2023-08-08T07:29:13.734Z,29.19
2023-08-08T07:31:41.454Z,29.11
2023-08-08T07:34:09.085Z,29.08
2023-08-08T07:36:36.831Z,29.15
2023-08-08T07:39:04.538Z,29.22
2023-08-08T07:41:32.265Z,29.29
2023-08-08T07:44:00.038Z,29.36
2023-08-08T07:46:27.819Z,29.37
2023-08-08T07:48:55.827Z,29.42
2023-08-08T07:51:23.488Z,29.50
2023-08-08T07:53:51.198Z,29.56
2023-08-08T07:56:19.042Z,29.70
2023-08-08T07:58:46.706Z,29.78
2023-08-08T08:01:15.125Z,29.78
2023-08-08T08:03:43.224Z,29.78
2023-08-08T08:06:10.910Z,29.82
2023-08-08T08:08:38.788Z,29.90
2023-08-08T08:11:06.613Z,29.92
2023-08-08T08:13:34.410Z,30.00
2023-08-08T08:16:02.061Z,30.01
2023-08-08T08:18:31.226Z,30.02
2023-08-08T08:20:58.972Z,29.96
2023-08-08T08:23:26.647Z,30.01
2023-08-08T08:25:54.340Z,30.19
2023-08-08T08:28:22.062Z,30.40
2023-08-08T08:30:51.051Z,30.60
2023-08-08T08:33:18.958Z,30.79
2023-08-08T08:35:47.037Z,30.92
2023-08-08T08:38:14.951Z,31.04
2023-08-08T08:40:43.658Z,31.14
2023-08-08T08:43:11.736Z,31.25
2023-08-08T08:45:43.234Z,31.38
2023-08-08T08:48:12.864Z,31.47
2023-08-08T08:50:41.391Z,31.62
2023-08-08T08:53:09.314Z,31.72
2023-08-08T08:55:36.973Z,31.82
2023-08-08T08:58:05.581Z,31.80
2023-08-08T09:00:35.632Z,31.87
2023-08-08T09:05:34.537Z,32.21
2023-08-08T09:08:02.452Z,32.39
2023-08-08T09:10:33.420Z,32.59
2023-08-08T09:13:01.299Z,32.78
2023-08-08T09:15:33.549Z,32.84
2023-08-08T09:18:02.344Z,32.83
2023-08-08T09:20:30.561Z,32.59
2023-08-08T09:22:58.571Z,32.39
2023-08-08T09:25:27.834Z,32.29
2023-08-08T09:27:55.812Z,32.25
2023-08-08T09:30:23.923Z,32.25
2023-08-08T09:32:51.718Z,32.20
2023-08-08T09:35:20.384Z,32.11
2023-08-08T09:37:48.168Z,32.08
2023-08-08T09:40:17.220Z,32.31
2023-08-08T09:42:44.985Z,32.69
2023-08-08T09:45:12.687Z,33.10
2023-08-08T09:47:40.669Z,33.45
2023-08-08T09:50:09.257Z,33.62
2023-08-08T09:52:40.348Z,33.62
2023-08-08T09:55:09.025Z,33.68
2023-08-08T09:57:38.653Z,33.86
2023-08-08T10:00:11.642Z,33.78
2023-08-08T10:02:39.565Z,33.44
2023-08-08T10:05:07.572Z,33.23
2023-08-08T10:07:35.327Z,33.20
2023-08-08T10:10:03.299Z,33.06
2023-08-08T10:12:33.016Z,32.98
2023-08-08T10:15:00.763Z,32.82
2023-08-08T10:17:29.199Z,32.71
2023-08-08T10:19:57.643Z,32.79
2023-08-08T10:22:26.327Z,32.66
2023-08-08T10:24:55.478Z,32.58
2023-08-08T10:27:34.784Z,32.63
2023-08-08T10:30:13.619Z,32.80
2023-08-08T10:32:44.189Z,32.86
2023-08-08T10:35:13.187Z,32.93
2023-08-08T10:37:42.435Z,33.04
2023-08-08T10:40:12.681Z,33.24
2023-08-08T10:42:47.006Z,33.61
2023-08-08T10:45:18.299Z,33.86
2023-08-08T10:47:46.688Z,33.85
2023-08-08T10:50:24.357Z,33.88
2023-08-08T10:52:55.748Z,33.88
2023-08-08T10:55:24.688Z,34.17
2023-08-08T10:58:21.314Z,34.57
2023-08-08T11:00:50.005Z,34.80
2023-08-08T11:03:20.728Z,34.96
2023-08-08T11:05:52.540Z,34.88
2023-08-08T11:08:22.962Z,34.91
2023-08-08T11:10:55.029Z,34.80
2023-08-08T11:13:22.663Z,34.65
2023-08-08T11:15:50.440Z,34.71
2023-08-08T11:18:18.423Z,34.70
2023-08-08T11:20:46.089Z,34.68
2023-08-08T11:23:14.670Z,34.88
2023-08-08T11:25:46.850Z,34.77
2023-08-08T11:28:15.123Z,34.62
2023-08-08T11:30:47.338Z,34.61
2023-08-08T11:33:16.943Z,34.64
2023-08-08T11:35:47.799Z,34.60
2023-08-08T11:38:16.740Z,34.57
2023-08-08T11:40:45.143Z,34.72
2023-08-08T11:43:15.003Z,34.72
2023-08-08T11:45:44.406Z,34.74
2023-08-08T11:48:12.135Z,34.82
2023-08-08T11:50:41.396Z,34.98
2023-08-08T11:53:09.669Z,35.32
2023-08-08T11:55:38.240Z,35.53
2023-08-08T11:58:07.060Z,35.60
2023-08-08T12:00:35.361Z,35.58
2023-08-08T12:03:05.945Z,35.80
2023-08-08T12:05:39.498Z,35.63
2023-08-08T12:08:08.243Z,35.54
2023-08-08T12:10:36.013Z,35.74
2023-08-08T12:13:04.067Z,35.89
2023-08-08T12:15:36.239Z,35.99
2023-08-08T12:18:05.126Z,36.25
2023-08-08T12:20:33.497Z,36.44
2023-08-08T12:23:01.601Z,36.69
2023-08-08T12:25:29.463Z,36.81
2023-08-08T12:27:57.234Z,36.92
2023-08-08T12:30:26.793Z,36.86
2023-08-08T12:32:55.085Z,36.76
2023-08-08T12:35:23.184Z,36.76
2023-08-08T12:37:50.869Z,36.98
2023-08-08T12:40:18.555Z,37.31
2023-08-08T12:42:49.070Z,37.76
2023-08-08T12:45:16.825Z,38.06
2023-08-08T12:47:44.520Z,38.36
2023-08-08T12:50:12.488Z,38.51
2023-08-08T12:52:40.436Z,38.49
2023-08-08T12:55:08.914Z,38.24
2023-08-08T12:57:36.677Z,37.87
2023-08-08T13:00:05.220Z,37.63
2023-08-08T13:02:35.432Z,37.68
2023-08-08T13:05:04.924Z,37.60
2023-08-08T13:07:33.036Z,37.63
2023-08-08T13:10:02.169Z,37.77
2023-08-08T13:12:32.476Z,37.49
2023-08-08T13:15:00.458Z,37.35
2023-08-08T13:17:31.761Z,37.32
2023-08-08T13:19:59.569Z,37.38
2023-08-08T13:22:27.554Z,37.38
2023-08-08T13:24:55.343Z,37.22
2023-08-08T13:27:23.696Z,37.10
2023-08-08T13:29:51.401Z,37.24
2023-08-08T13:32:19.447Z,37.18
2023-08-08T13:34:47.090Z,36.66
2023-08-08T13:37:14.980Z,36.18
2023-08-08T13:39:42.760Z,36.14
2023-08-08T13:42:10.834Z,36.18
2023-08-08T13:44:38.568Z,36.35
2023-08-08T13:47:06.529Z,36.71
2023-08-08T13:49:34.413Z,36.92
2023-08-08T13:52:02.391Z,37.05
2023-08-08T13:54:30.278Z,37.04
2023-08-08T13:56:58.311Z,37.26
2023-08-08T13:59:26.110Z,37.22
2023-08-08T14:01:54.194Z,36.80
2023-08-08T14:04:21.931Z,36.31
2023-08-08T14:06:49.531Z,35.70
2023-08-08T14:09:19.509Z,35.40
2023-08-08T14:11:47.778Z,35.77
2023-08-08T14:14:17.929Z,36.43
2023-08-08T14:16:45.660Z,36.74
2023-08-08T14:19:14.409Z,36.94
2023-08-08T14:21:42.170Z,37.07
2023-08-08T14:24:09.900Z,37.25
2023-08-08T14:26:39.110Z,37.80
2023-08-08T14:29:07.219Z,38.17
2023-08-08T14:31:43.374Z,38.55
2023-08-08T14:34:17.906Z,38.44
2023-08-08T14:36:45.656Z,38.53
2023-08-08T14:39:13.316Z,38.55
2023-08-08T14:41:41.208Z,38.18
2023-08-08T14:44:09.001Z,37.80
2023-08-08T14:46:37.970Z,37.22
2023-08-08T14:49:07.199Z,36.24
2023-08-08T14:51:36.229Z,35.37
2023-08-08T14:54:04.824Z,34.81
2023-08-08T14:56:32.510Z,34.33
2023-08-08T14:59:00.224Z,33.83
2023-08-08T15:01:27.997Z,33.43
2023-08-08T15:03:57.593Z,33.24
2023-08-08T15:06:25.573Z,33.13
2023-08-08T15:08:53.382Z,32.99
2023-08-08T15:11:20.980Z,32.82
2023-08-08T15:13:48.658Z,32.54
2023-08-08T15:16:17.059Z,32.18
2023-08-08T15:18:44.818Z,31.87
2023-08-08T15:21:12.487Z,31.66
2023-08-08T15:23:41.455Z,31.42
2023-08-08T15:26:09.175Z,31.24
2023-08-08T15:28:36.748Z,31.17
2023-08-08T15:31:04.768Z,31.04
2023-08-08T15:33:32.636Z,31.00
2023-08-08T15:36:00.539Z,30.94
2023-08-08T15:38:28.917Z,30.91
2023-08-08T15:40:56.726Z,30.92
2023-08-08T15:43:26.221Z,30.98
2023-08-08T15:45:54.034Z,31.00
2023-08-08T15:48:21.755Z,31.01
2023-08-08T15:50:49.537Z,31.07
2023-08-08T15:53:18.992Z,31.10
2023-08-08T15:55:46.670Z,31.07
2023-08-08T15:58:14.444Z,31.11
2023-08-08T16:00:42.242Z,31.08
2023-08-08T16:03:10.086Z,31.04
2023-08-08T16:05:37.784Z,30.94
2023-08-08T16:08:08.253Z,30.83
2023-08-08T16:10:36.263Z,30.79
2023-08-08T16:13:04.017Z,30.72
2023-08-08T16:15:31.709Z,30.63
2023-08-08T16:17:59.389Z,30.55
2023-08-08T16:20:27.045Z,30.49
2023-08-08T16:22:55.659Z,30.39
2023-08-08T16:25:23.668Z,30.29
2023-08-08T16:27:51.388Z,30.18
2023-08-08T16:30:19.210Z,30.07
2023-08-08T16:32:46.943Z,30.02
2023-08-08T16:35:15.413Z,30.01
2023-08-08T16:37:43.131Z,29.88
2023-08-08T16:40:11.023Z,29.73
2023-08-08T16:42:39.347Z,29.62
2023-08-08T16:45:07.484Z,29.46
2023-08-08T16:47:35.164Z,29.36
2023-08-08T16:50:04.052Z,29.32
2023-08-08T16:52:32.111Z,29.22
2023-08-08T16:54:59.807Z,29.14
2023-08-08T16:57:27.513Z,29.05
2023-08-08T16:59:55.584Z,29.02
2023-08-08T17:02:23.187Z,28.92
2023-08-08T17:04:52.731Z,28.84
2023-08-08T17:07:20.346Z,28.74
2023-08-08T17:09:48.047Z,28.67
2023-08-08T17:12:15.687Z,28.64
2023-08-08T17:14:43.309Z,28.53
2023-08-08T17:17:10.957Z,28.40
2023-08-08T17:19:39.215Z,28.27
2023-08-08T17:22:07.017Z,28.17
2023-08-08T17:24:38.197Z,28.10
2023-08-08T17:27:12.706Z,28.08
2023-08-08T17:29:40.506Z,28.06
2023-08-08T17:32:08.335Z,28.04
2023-08-08T17:34:36.150Z,28.02
2023-08-08T17:37:03.898Z,27.98
2023-08-08T17:39:31.659Z,27.94
2023-08-08T17:41:59.968Z,27.87
2023-08-08T17:44:28.124Z,27.87
2023-08-08T17:46:55.903Z,27.81
2023-08-08T17:49:24.803Z,27.78
2023-08-08T17:51:52.569Z,27.72
2023-08-08T17:54:20.198Z,27.71
2023-08-08T17:56:49.006Z,27.70
2023-08-08T17:59:16.688Z,27.67
2023-08-08T18:01:44.951Z,27.64
2023-08-08T18:04:13.408Z,27.60
2023-08-08T18:06:41.290Z,27.54
2023-08-08T18:09:08.975Z,27.50
2023-08-08T18:11:39.671Z,27.46
2023-08-08T18:14:08.530Z,27.40
2023-08-08T18:16:37.621Z,27.36
2023-08-08T18:19:05.588Z,27.30
2023-08-08T18:21:33.458Z,27.26
2023-08-08T18:24:01.487Z,27.22
2023-08-08T18:26:29.261Z,27.20
2023-08-08T18:28:57.183Z,27.16
2023-08-08T18:31:24.982Z,27.10
2023-08-08T18:33:59.710Z,27.08
2023-08-08T18:36:28.067Z,27.00
2023-08-08T18:38:56.339Z,26.99
2023-08-08T18:41:24.189Z,26.94
2023-08-08T18:43:51.929Z,26.92
2023-08-08T18:46:20.461Z,26.92
2023-08-08T18:48:48.297Z,26.89
2023-08-08T18:51:17.281Z,26.85
2023-08-08T18:53:47.076Z,26.85
2023-08-08T18:56:14.887Z,26.84
2023-08-08T18:58:42.788Z,26.79
2023-08-08T19:01:10.575Z,26.77
2023-08-08T19:03:39.161Z,26.72
2023-08-08T19:06:06.899Z,26.67
2023-08-08T19:08:34.810Z,26.61
2023-08-08T19:11:03.725Z,26.55
2023-08-08T19:13:31.440Z,26.45
2023-08-08T19:15:59.195Z,26.44
2023-08-08T19:18:26.865Z,26.39
2023-08-08T19:20:54.809Z,26.34
2023-08-08T19:23:28.479Z,26.32
2023-08-08T19:26:02.865Z,26.24
2023-08-08T19:28:30.514Z,26.22
2023-08-08T19:30:58.315Z,26.17
2023-08-08T19:33:26.219Z,26.15
2023-08-08T19:35:54.063Z,26.10
2023-08-08T19:38:21.767Z,26.06
2023-08-08T19:40:49.467Z,26.02
2023-08-08T19:43:17.232Z,25.99
2023-08-08T19:45:44.971Z,25.95
2023-08-08T19:48:12.877Z,25.90
2023-08-08T19:50:43.321Z,25.89
2023-08-08T19:53:11.402Z,25.85
2023-08-08T19:55:39.862Z,25.79
2023-08-08T19:58:07.442Z,25.75
2023-08-08T20:00:35.150Z,25.72
2023-08-08T20:03:03.390Z,25.71
2023-08-08T20:05:31.004Z,25.67
2023-08-08T20:07:58.734Z,25.67
2023-08-08T20:10:26.553Z,25.67
2023-08-08T20:12:54.309Z,25.65
2023-08-08T20:15:22.794Z,25.62
2023-08-08T20:17:50.654Z,25.62
2023-08-08T20:20:18.548Z,25.61
2023-08-08T20:22:46.318Z,25.58
2023-08-08T20:25:15.756Z,25.54
2023-08-08T20:27:43.520Z,25.52
2023-08-08T20:30:12.671Z,25.50
2023-08-08T20:32:40.477Z,25.50
2023-08-08T20:35:08.509Z,25.48
2023-08-08T20:37:36.363Z,25.47
2023-08-08T20:40:04.553Z,25.43
2023-08-08T20:42:32.273Z,25.38
2023-08-08T20:45:00.329Z,25.35
2023-08-08T20:47:28.152Z,25.30
2023-08-08T20:49:56.054Z,25.26
2023-08-08T20:52:23.882Z,25.19
2023-08-08T20:54:51.532Z,25.14
2023-08-08T20:57:19.197Z,25.09
2023-08-08T20:59:47.101Z,25.07
2023-08-08T21:02:14.793Z,25.00
2023-08-08T21:04:42.375Z,25.00
2023-08-08T21:07:15.248Z,24.97
2023-08-08T21:09:43.048Z,24.99
2023-08-08T21:12:12.976Z,24.97
2023-08-08T21:14:40.680Z,24.97
2023-08-08T21:17:08.369Z,25.02
2023-08-08T21:19:36.185Z,25.02
2023-08-08T21:22:04.398Z,25.02
2023-08-08T21:24:32.682Z,25.00
2023-08-08T21:27:00.372Z,24.96
2023-08-08T21:29:28.013Z,24.97
2023-08-08T21:31:55.655Z,24.97
2023-08-08T21:34:23.456Z,24.99
2023-08-08T21:36:51.370Z,24.99
2023-08-08T21:39:19.012Z,25.02
2023-08-08T21:41:46.662Z,25.05
2023-08-08T21:44:14.322Z,25.03
2023-08-08T21:46:42.130Z,25.02
2023-08-08T21:49:09.829Z,24.99
2023-08-08T21:51:37.779Z,25.00
2023-08-08T21:54:06.170Z,24.97
2023-08-08T21:56:34.383Z,25.02
2023-08-08T21:59:02.420Z,25.02
2023-08-08T22:01:30.186Z,25.00
2023-08-08T22:03:57.840Z,25.00
2023-08-08T22:06:25.519Z,24.99
2023-08-08T22:08:53.287Z,25.00
2023-08-08T22:11:21.001Z,25.00
2023-08-08T22:13:48.668Z,24.96
2023-08-08T22:16:16.318Z,24.97
2023-08-08T22:18:44.138Z,24.97
2023-08-08T22:21:11.846Z,24.93
2023-08-08T22:23:39.545Z,24.89
2023-08-08T22:26:07.171Z,24.86
2023-08-08T22:28:34.816Z,24.83
2023-08-08T22:31:02.658Z,24.80
2023-08-08T22:33:30.371Z,24.75
2023-08-08T22:35:58.240Z,24.75
2023-08-08T22:38:26.033Z,24.75
2023-08-08T22:40:53.828Z,24.76
2023-08-08T22:43:21.637Z,24.79
2023-08-08T22:45:49.772Z,24.79
2023-08-08T22:48:17.490Z,24.79
2023-08-08T22:50:45.624Z,24.79
2023-08-08T22:53:13.727Z,24.80
2023-08-08T22:55:41.562Z,24.80
2023-08-08T22:58:09.232Z,24.76
2023-08-08T23:00:38.119Z,24.78
2023-08-08T23:03:07.882Z,24.73
2023-08-08T23:05:35.800Z,24.72
2023-08-08T23:08:05.093Z,24.65
2023-08-08T23:10:32.998Z,24.65
2023-08-08T23:13:00.697Z,24.58
2023-08-08T23:15:28.335Z,24.57
2023-08-08T23:17:56.167Z,24.55
2023-08-08T23:20:24.021Z,24.55
2023-08-08T23:22:51.840Z,24.54
2023-08-08T23:25:23.381Z,24.52
2023-08-08T23:27:51.105Z,24.47
2023-08-08T23:30:19.615Z,24.42
2023-08-08T23:32:54.428Z,24.42
2023-08-08T23:35:23.411Z,24.40
2023-08-08T23:37:51.414Z,24.37
2023-08-08T23:40:19.333Z,24.37
2023-08-08T23:42:48.040Z,24.33
2023-08-08T23:45:16.179Z,24.31
2023-08-08T23:47:44.158Z,24.25
2023-08-08T23:50:12.249Z,24.25
2023-08-08T23:52:40.347Z,24.21
2023-08-08T23:55:10.859Z,24.14
2023-08-08T23:57:39.025Z,24.13
